Time;durP1;ratioP1;P1;durP2;ratioP2;P2;SDS_P1;SDS_P2;PMS_P1;PMS_P2;Temp;Humidity;BMP_temperature;BMP_pressure;BME280_temperature;BME280_humidity;BME280_pressure;Samples;Min_cycle;Max_cycle;Signal;HPM_P1;HPM_P2
2023/12/15 00:00:03;;;;;;;61.88;24.55;;;;;;;-20.26;52.81;99452.09;6087533;29;20574;-66
2023/12/15 00:03:07;;;;;;;56.42;23.05;;;;;;;-20.24;52.37;99461.50;6103801;29;20055;-66
2023/12/15 00:06:08;;;;;;;51.00;22.92;;;;;;;-20.23;52.83;99437.38;6103797;29;20048;-66
2023/12/15 00:09:10;;;;;;;55.25;23.77;;;;;;;-20.17;52.41;99450.47;6087080;29;20032;-66
2023/12/15 00:12:14;;;;;;;54.78;23.15;;;;;;;-20.10;53.08;99451.91;6104014;29;20040;-66
2023/12/15 00:15:18;;;;;;;54.72;22.23;;;;;;;-20.07;52.62;99445.56;6103962;29;20067;-66
2023/12/15 00:18:20;;;;;;;52.47;22.05;;;;;;;-20.05;52.98;99434.09;6103549;29;20059;-67
2023/12/15 00:21:23;;;;;;;41.88;17.15;;;;;;;-20.01;52.88;99431.16;6103686;29;20122;-66
2023/12/15 00:24:25;;;;;;;51.95;19.23;;;;;;;-19.94;53.07;99446.00;6103814;29;20048;-66
2023/12/15 00:27:31;;;;;;;45.08;17.08;;;;;;;-19.95;52.88;99436.72;6103819;29;20048;-66
2023/12/15 00:30:32;;;;;;;38.72;17.55;;;;;;;-19.80;53.04;99451.44;6103662;29;20040;-67
2023/12/15 00:33:34;;;;;;;47.33;20.17;;;;;;;-19.78;52.47;99445.84;6103763;29;20044;-67
2023/12/15 00:36:35;;;;;;;43.22;18.65;;;;;;;-19.76;52.47;99430.91;6103526;29;20047;-66
2023/12/15 00:39:37;;;;;;;47.58;19.58;;;;;;;-19.78;52.88;99429.91;6103465;29;20040;-67
2023/12/15 00:42:41;;;;;;;49.42;19.40;;;;;;;-19.73;52.68;99434.59;6103301;29;20051;-66
2023/12/15 00:45:42;;;;;;;46.20;20.77;;;;;;;-19.74;52.27;99426.94;6102802;29;20075;-66
2023/12/15 00:48:47;;;;;;;38.88;16.58;;;;;;;-19.74;52.74;99424.44;6103259;29;20043;-67
2023/12/15 00:51:51;;;;;;;57.03;19.20;;;;;;;-19.73;52.78;99428.69;6102856;29;20054;-66
2023/12/15 00:54:53;;;;;;;59.13;18.70;;;;;;;-19.74;52.75;99424.44;6103008;29;20589;-66
2023/12/15 00:57:55;;;;;;;49.72;19.52;;;;;;;-19.78;52.76;99427.41;6102496;29;20127;-66
2023/12/15 01:00:58;;;;;;;60.08;20.98;;;;;;;-19.78;52.51;99424.91;6103121;29;20063;-66
2023/12/15 01:04:02;;;;;;;42.42;20.92;;;;;;;-19.78;52.49;99424.91;6102591;29;20040;-67
2023/12/15 01:07:06;;;;;;;47.10;20.48;;;;;;;-19.78;52.61;99414.88;6102878;29;20043;-66
2023/12/15 01:10:07;;;;;;;41.67;17.15;;;;;;;-19.78;52.47;99417.38;6102839;29;20056;-66
2023/12/15 01:13:09;;;;;;;39.47;14.90;;;;;;;-19.80;52.79;99431.38;6102698;29;20502;-66
2023/12/15 01:16:12;;;;;;;44.95;17.60;;;;;;;-19.74;52.80;99421.94;6102695;29;20083;-66
2023/12/15 01:19:20;;;;;;;43.83;19.58;;;;;;;-19.74;52.85;99416.91;6102442;29;20491;-66
2023/12/15 01:22:22;;;;;;;46.05;18.10;;;;;;;-19.71;52.41;99417.19;6101535;29;20056;-67
2023/12/15 01:25:23;;;;;;;63.40;19.48;;;;;;;-19.72;52.53;99417.94;6102623;29;20044;-67
2023/12/15 01:28:27;;;;;;;46.85;18.80;;;;;;;-19.82;52.71;99396.16;6102580;29;20442;-65
2023/12/15 01:31:29;;;;;;;50.50;19.37;;;;;;;-19.63;52.81;99417.88;6102371;29;20040;-66
2023/12/15 01:34:33;;;;;;;44.63;19.15;;;;;;;-19.62;52.55;99420.53;6102511;29;20048;-66
2023/12/15 01:37:34;;;;;;;51.05;20.55;;;;;;;-19.60;52.76;99426.56;6102029;29;20129;-66
2023/12/15 01:40:36;;;;;;;53.00;20.92;;;;;;;-19.58;52.55;99414.19;6101040;29;20407;-67
2023/12/15 01:43:37;;;;;;;45.28;20.15;;;;;;;-19.59;53.01;99402.38;6101685;29;20514;-66
2023/12/15 01:46:41;;;;;;;54.95;22.30;;;;;;;-19.58;52.94;99397.50;6101880;29;20052;-66
2023/12/15 01:49:43;;;;;;;53.70;20.83;;;;;;;-19.51;52.86;99397.31;6101423;29;20612;-66
2023/12/15 01:52:44;;;;;;;49.30;20.55;;;;;;;-19.45;52.81;99403.66;6101288;29;20060;-67
2023/12/15 01:55:48;;;;;;;64.05;24.63;;;;;;;-19.46;53.41;99389.34;6101446;29;20048;-66
2023/12/15 01:58:50;;;;;;;61.53;26.63;;;;;;;-19.43;52.60;99389.63;6100944;29;20067;-67
2023/12/15 02:01:56;;;;;;;69.93;23.17;;;;;;;-19.54;52.65;99381.13;6101881;29;20048;-67
2023/12/15 02:04:58;;;;;;;60.10;22.23;;;;;;;-19.79;52.45;99347.94;6101574;29;20071;-66
2023/12/15 02:08:01;;;;;;;66.05;23.70;;;;;;;-19.56;53.39;99378.47;6101534;29;20135;-66
2023/12/15 02:11:03;;;;;;;49.67;20.13;;;;;;;-19.57;53.44;99376.69;6101420;29;20036;-67
2023/12/15 02:14:04;;;;;;;53.50;20.85;;;;;;;-19.51;53.17;99377.25;6101109;29;20433;-66
2023/12/15 02:17:05;;;;;;;44.42;20.35;;;;;;;-19.45;53.06;99366.03;6101542;29;20040;-66
2023/12/15 02:20:08;;;;;;;48.58;19.77;;;;;;;-19.58;53.10;99344.00;6084300;29;20067;-67
2023/12/15 02:23:10;;;;;;;48.25;20.02;;;;;;;-19.41;53.19;99368.09;6101237;29;20078;-67
2023/12/15 02:26:11;;;;;;;51.00;19.33;;;;;;;-19.41;53.16;99358.06;6083916;29;20052;-68
2023/12/15 02:29:13;;;;;;;49.92;21.20;;;;;;;-19.38;52.89;99363.34;6100458;29;20055;-66
2023/12/15 02:32:19;;;;;;;55.30;18.13;;;;;;;-19.38;52.70;99366.75;6069023;29;20044;-66
2023/12/15 02:35:23;;;;;;;37.30;17.80;;;;;;;-19.39;52.83;99369.09;6100147;29;20056;-67
2023/12/15 02:38:26;;;;;;;48.72;20.42;;;;;;;-19.83;52.57;99318.34;6100804;29;20179;-67
2023/12/15 02:41:29;;;;;;;57.50;23.42;;;;;;;-19.46;52.76;99379.31;6099611;29;20438;-66
2023/12/15 02:44:31;;;;;;;30.20;15.30;;;;;;;-19.51;52.73;99373.88;6099977;29;20060;-66
2023/12/15 02:47:32;;;;;;;46.70;21.10;;;;;;;-19.51;53.08;99377.25;6100333;29;20048;-67
2023/12/15 02:50:34;;;;;;;45.13;19.55;;;;;;;-19.53;53.18;99383.78;6067839;29;20052;-67
2023/12/15 02:53:35;;;;;;;24.90;10.77;;;;;;;-19.58;53.15;99359.91;6099471;29;20048;-68
2023/12/15 02:56:39;;;;;;;51.03;19.65;;;;;;;-19.46;53.06;99369.28;6100234;29;20502;-67
2023/12/15 02:59:40;;;;;;;48.83;18.05;;;;;;;-19.49;53.07;99370.78;6099822;29;20061;-66
2023/12/15 03:02:45;;;;;;;48.13;20.00;;;;;;;-19.49;52.85;99375.78;6100539;29;20099;-66
2023/12/15 03:05:47;;;;;;;48.33;18.98;;;;;;;-19.49;53.14;99370.78;6082823;29;20051;-66
2023/12/15 03:08:51;;;;;;;53.88;20.50;;;;;;;-19.48;53.40;99362.50;6100114;29;20040;-67
2023/12/15 03:11:57;;;;;;;55.88;20.70;;;;;;;-19.45;53.41;99376.06;6099281;29;20516;-67
2023/12/15 03:14:59;;;;;;;61.33;23.73;;;;;;;-19.42;53.60;99366.31;6099947;29;20457;-67
2023/12/15 03:18:00;;;;;;;68.13;23.05;;;;;;;-19.36;53.15;99349.31;6099409;29;20142;-66
2023/12/15 03:21:04;;;;;;;34.88;14.32;;;;;;;-19.37;52.96;99342.53;6099685;29;20044;-66
2023/12/15 03:24:05;;;;;;;45.53;18.42;;;;;;;-19.36;52.72;99351.81;6082555;29;20052;-67
2023/12/15 03:27:08;;;;;;;42.42;17.05;;;;;;;-19.33;52.74;99357.09;6099749;29;20044;-66
2023/12/15 03:30:10;;;;;;;40.65;18.70;;;;;;;-19.36;53.32;99352.72;6099831;29;20179;-67
2023/12/15 03:33:13;;;;;;;42.17;19.20;;;;;;;-19.40;53.39;99349.78;6099338;29;20040;-67
2023/12/15 03:36:15;;;;;;;61.25;24.10;;;;;;;-19.52;53.38;99335.38;6099415;29;20048;-67
2023/12/15 03:39:16;;;;;;;58.70;22.33;;;;;;;-19.44;54.09;99357.75;6099297;29;20048;-66
2023/12/15 03:42:17;;;;;;;57.30;23.80;;;;;;;-19.43;53.64;99354.53;6082541;29;20528;-65
2023/12/15 03:45:18;;;;;;;55.58;21.77;;;;;;;-19.43;53.90;99355.41;6099535;29;20417;-66
2023/12/15 03:48:20;;;;;;;60.55;23.02;;;;;;;-19.42;53.86;99351.25;6098879;29;20044;-67
2023/12/15 03:51:24;;;;;;;56.65;21.88;;;;;;;-19.44;53.52;99345.22;6099366;29;20048;-67
2023/12/15 03:54:25;;;;;;;64.05;22.42;;;;;;;-19.44;53.67;99342.72;6099328;29;20043;-66
2023/12/15 03:57:27;;;;;;;30.02;13.70;;;;;;;-19.43;53.55;99354.53;6098918;29;20063;-66
2023/12/15 04:00:28;;;;;;;52.42;23.88;;;;;;;-19.47;53.40;99358.38;6099278;29;20063;-66
2023/12/15 04:03:30;;;;;;;59.22;21.45;;;;;;;-19.47;53.41;99348.34;6098980;29;20510;-67
2023/12/15 04:06:31;;;;;;;50.42;20.40;;;;;;;-19.54;53.19;99346.91;6099153;29;20052;-66
2023/12/15 04:09:33;;;;;;;54.42;20.67;;;;;;;-19.50;53.42;99353.97;6098710;29;20418;-67
2023/12/15 04:12:34;;;;;;;45.35;19.60;;;;;;;-19.57;53.67;99346.63;6098840;29;20048;-67
2023/12/15 04:15:35;;;;;;;48.60;19.02;;;;;;;-19.54;53.55;99351.03;6098790;29;20048;-66
2023/12/15 04:18:37;;;;;;;55.83;23.52;;;;;;;-19.52;53.95;99354.56;6082519;29;20453;-67
2023/12/15 04:21:39;;;;;;;63.97;26.05;;;;;;;-19.49;54.00;99348.19;6098913;29;20658;-65
2023/12/15 04:24:42;;;;;;;75.95;26.63;;;;;;;-19.42;53.94;99346.25;6086252;29;20139;-66
2023/12/15 04:27:44;;;;;;;71.40;28.63;;;;;;;-19.36;53.89;99346.78;6103039;29;20104;-66
2023/12/15 04:30:47;;;;;;;72.07;27.80;;;;;;;-19.40;53.78;99334.75;6103520;29;20490;-67
2023/12/15 04:33:49;;;;;;;67.65;28.05;;;;;;;-19.30;54.12;99339.81;6103676;29;20071;-67
2023/12/15 04:36:52;;;;;;;70.15;27.15;;;;;;;-19.30;53.66;99347.34;6103331;29;20036;-67
2023/12/15 04:39:53;;;;;;;78.38;29.08;;;;;;;-19.34;53.93;99337.78;6103551;29;20525;-67
2023/12/15 04:42:55;;;;;;;87.38;27.77;;;;;;;-19.32;53.70;99339.69;6103408;29;20043;-67
2023/12/15 04:45:56;;;;;;;52.50;23.10;;;;;;;-19.31;53.79;99346.47;6103179;29;20093;-66
2023/12/15 04:49:01;;;;;;;56.58;24.02;;;;;;;-19.49;53.61;99309.72;6086037;29;20040;-66
2023/12/15 04:52:03;;;;;;;62.83;25.30;;;;;;;-19.16;53.58;99347.00;6102661;29;20044;-66
2023/12/15 04:55:10;;;;;;;73.65;25.73;;;;;;;-19.01;53.63;99347.47;6086356;29;20067;-67
2023/12/15 04:58:11;;;;;;;57.70;23.38;;;;;;;-18.90;53.66;99335.88;6077931;29;20056;-65
2023/12/15 05:01:14;;;;;;;79.10;26.13;;;;;;;-18.74;53.99;99333.97;6079285;29;20395;-67
2023/12/15 05:04:15;;;;;;;72.95;25.65;;;;;;;-18.54;53.29;99342.34;6079184;29;20056;-66
2023/12/15 05:07:17;;;;;;;67.13;25.65;;;;;;;-18.42;53.42;99338.41;6079311;29;20041;-66
2023/12/15 05:10:20;;;;;;;56.63;23.75;;;;;;;-18.21;52.98;99335.22;6079039;29;20044;-67
2023/12/15 05:13:25;;;;;;;67.00;24.10;;;;;;;-18.01;52.89;99343.59;6079057;29;20044;-66
2023/12/15 05:16:29;;;;;;;56.78;24.77;;;;;;;-17.88;52.52;99341.38;6079746;29;20540;-66
2023/12/15 05:19:31;;;;;;;65.63;26.08;;;;;;;-17.75;52.66;99336.56;6077445;29;20059;-66
2023/12/15 05:22:32;;;;;;;90.13;32.70;;;;;;;-17.53;52.48;99333.38;6078415;29;20155;-66
2023/12/15 05:25:36;;;;;;;104.57;40.30;;;;;;;-17.36;52.34;99320.53;6078654;29;20051;-66
2023/12/15 05:28:44;;;;;;;76.43;33.80;;;;;;;-17.10;52.17;99329.34;6079844;29;20068;-66
2023/12/15 05:31:46;;;;;;;83.70;30.30;;;;;;;-17.05;51.60;99307.97;6078961;29;20502;-66
2023/12/15 05:34:49;;;;;;;81.47;31.70;;;;;;;-16.89;51.66;99328.59;6078046;29;20044;-67
2023/12/15 05:37:51;;;;;;;71.53;29.58;;;;;;;-16.84;51.44;99324.81;6078659;29;20071;-67
2023/12/15 05:40:52;;;;;;;73.72;28.63;;;;;;;-16.71;51.44;99324.13;6078629;29;20038;-67
2023/12/15 05:43:54;;;;;;;70.70;26.70;;;;;;;-16.44;51.40;99317.91;6078380;29;20036;-67
2023/12/15 05:46:57;;;;;;;;;;;;;;;-16.17;51.57;99320.81;6078651;29;20048;-66
2023/12/15 05:50:00;;;;;;;82.60;30.27;;;;;;;-15.94;50.90;99317.56;6078550;29;20313;-66
2023/12/15 05:53:02;;;;;;;53.97;22.48;;;;;;;-15.73;50.44;99313.31;6078108;29;20048;-66
2023/12/15 05:56:04;;;;;;;64.50;23.45;;;;;;;-15.58;50.61;99313.56;6078359;29;20047;-68
2023/12/15 05:59:09;;;;;;;68.50;24.75;;;;;;;-15.43;50.00;99300.44;6093704;29;20430;-68
2023/12/15 06:02:10;;;;;;;43.85;19.17;;;;;;;-15.20;50.21;99308.84;6100867;29;20060;-67
2023/12/15 06:05:12;;;;;;;61.17;23.42;;;;;;;-15.10;49.63;99311.31;6101217;29;20067;-66
2023/12/15 06:08:17;;;;;;;53.50;21.02;;;;;;;-14.89;49.79;99312.00;6101195;29;20418;-67
2023/12/15 06:11:18;;;;;;;48.13;21.85;;;;;;;-14.67;49.29;99300.94;6101274;29;20040;-68
2023/12/15 06:14:23;;;;;;;49.83;22.00;;;;;;;-14.56;49.54;99282.38;6101126;29;20056;-67
2023/12/15 06:17:30;;;;;;;56.00;22.60;;;;;;;-14.26;49.19;99298.84;6101180;29;20036;-67
2023/12/15 06:20:35;;;;;;;66.40;22.42;;;;;;;-14.15;48.48;99295.41;6101213;29;20051;-67
2023/12/15 06:23:36;;;;;;;53.47;22.38;;;;;;;-14.00;48.46;99287.13;6099951;29;20417;-67
2023/12/15 06:26:41;;;;;;;55.25;22.73;;;;;;;-13.94;48.12;99279.97;6101018;29;20048;-67
2023/12/15 06:29:42;;;;;;;62.65;24.52;;;;;;;-13.83;48.35;99272.34;6100497;29;20074;-67
2023/12/15 06:32:44;;;;;;;56.03;23.55;;;;;;;-13.67;48.25;99269.22;6100262;29;20044;-66
2023/12/15 06:35:46;;;;;;;56.60;23.75;;;;;;;-13.52;47.82;99273.56;6100519;29;20051;-67
2023/12/15 06:38:48;;;;;;;48.58;23.25;;;;;;;-13.38;47.83;99255.09;6100748;29;20182;-68
2023/12/15 06:41:53;;;;;;;59.88;25.25;;;;;;;-13.18;48.10;99261.47;6100517;29;20036;-67
2023/12/15 06:44:54;;;;;;;72.85;29.35;;;;;;;-12.93;47.76;99261.41;6100335;29;20047;-67
2023/12/15 06:47:58;;;;;;;72.18;31.73;;;;;;;-12.69;47.57;99254.50;6100451;29;20040;-67
2023/12/15 06:51:02;;;;;;;93.10;36.30;;;;;;;-12.48;47.52;99260.06;6099602;29;20048;-68
2023/12/15 06:54:04;;;;;;;96.43;38.17;;;;;;;-12.28;47.46;99251.19;6099854;29;20052;-68
2023/12/15 06:57:06;;;;;;;93.28;40.05;;;;;;;-12.15;47.14;99240.13;6099960;29;20065;-68
2023/12/15 07:00:09;;;;;;;117.68;46.03;;;;;;;-11.95;47.25;99238.81;6083225;29;20071;-66
2023/12/15 07:03:10;;;;;;;109.25;43.75;;;;;;;-11.78;47.06;99228.88;6100208;29;20052;-67
2023/12/15 07:06:19;;;;;;;97.60;43.55;;;;;;;-11.82;46.48;99210.84;6099932;29;20505;-66
2023/12/15 07:09:23;;;;;;;108.93;42.53;;;;;;;-11.64;46.77;99236.44;6100184;29;20532;-67
2023/12/15 07:12:25;;;;;;;121.28;47.85;;;;;;;-11.70;47.02;99225.94;6100508;29;20044;-66
2023/12/15 07:15:29;;;;;;;104.05;43.17;;;;;;;-11.70;47.00;99220.84;6100946;29;20032;-68
2023/12/15 07:18:33;;;;;;;111.93;45.40;;;;;;;-11.65;46.45;99209.31;6099920;29;20056;-67
2023/12/15 07:21:37;;;;;;;;;;;;;;;-11.51;46.46;99212.66;6100260;29;20052;-67
2023/12/15 07:24:40;;;;;;;81.38;33.42;;;;;;;-11.50;46.37;99200.03;6067165;29;19919;-66
2023/12/15 07:27:42;;;;;;;80.57;31.87;;;;;;;-11.31;46.17;99210.50;6099711;29;20052;-68
2023/12/15 07:30:46;;;;;;;79.65;32.58;;;;;;;-11.18;45.91;99204.47;6099838;29;21032;-68
2023/12/15 07:33:50;;;;;;;87.18;32.63;;;;;;;-11.05;45.67;99206.03;6099817;29;20574;-67
2023/12/15 07:36:51;;;;;;;78.05;30.35;;;;;;;-10.86;45.41;99203.75;6099577;29;20036;-67
2023/12/15 07:39:54;;;;;;;80.88;30.33;;;;;;;-10.53;44.84;99193.72;6099668;29;20040;-67
2023/12/15 07:42:58;;;;;;;68.70;29.30;;;;;;;-10.06;44.14;99197.91;6099650;29;20044;-67
2023/12/15 07:46:00;;;;;;;73.80;30.15;;;;;;;-9.43;43.63;99197.75;6082539;29;20056;-67
2023/12/15 07:49:05;;;;;;;65.10;29.63;;;;;;;-8.75;42.61;99196.88;6099377;29;20048;-67
2023/12/15 07:52:12;;;;;;;75.75;31.98;;;;;;;-8.09;41.93;99192.31;6099552;29;20043;-67
2023/12/15 07:55:18;;;;;;;70.95;28.70;;;;;;;-7.61;40.37;99188.53;6099438;29;20440;-67
2023/12/15 07:58:20;;;;;;;72.00;30.75;;;;;;;-7.38;40.07;99180.97;6101590;29;20382;-68
2023/12/15 08:01:24;;;;;;;77.63;32.70;;;;;;;-7.02;39.77;99181.63;6104312;29;20048;-67
2023/12/15 08:04:26;;;;;;;82.90;34.97;;;;;;;-6.36;39.04;99166.38;6103276;29;20127;-66
2023/12/15 08:07:27;;;;;;;84.13;35.47;;;;;;;-5.36;38.33;99178.56;6103771;29;20052;-67
2023/12/15 08:10:31;;;;;;;77.70;34.85;;;;;;;-4.36;37.45;99184.44;6103959;29;20621;-67
2023/12/15 08:13:33;;;;;;;74.55;33.08;;;;;;;-3.49;36.71;99173.28;6103902;29;20047;-67
2023/12/15 08:16:34;;;;;;;76.00;33.50;;;;;;;-2.83;35.69;99157.88;6103298;29;20434;-67
2023/12/15 08:19:36;;;;;;;69.60;32.15;;;;;;;-2.30;35.77;99159.97;6103897;29;20524;-68
2023/12/15 08:22:48;;;;;;;84.63;34.65;;;;;;;-1.92;34.56;99155.69;6103613;29;20044;-68
2023/12/15 08:25:53;;;;;;;81.18;34.10;;;;;;;-1.90;34.58;99160.84;6103520;29;20093;-68
2023/12/15 08:28:54;;;;;;;89.43;37.60;;;;;;;-2.43;35.33;99155.41;6086640;29;20459;-67
2023/12/15 08:31:56;;;;;;;92.57;41.03;;;;;;;-2.82;35.29;99157.03;6103334;29;20052;-68
2023/12/15 08:34:58;;;;;;;116.15;47.60;;;;;;;-3.13;36.16;99136.50;6103362;29;20052;-67
2023/12/15 08:37:59;;;;;;;105.40;51.35;;;;;;;-3.03;35.29;99128.16;6102495;29;20056;-67
2023/12/15 08:41:03;;;;;;;139.65;61.70;;;;;;;-2.85;34.50;99127.75;6103688;29;20123;-66
2023/12/15 08:44:06;;;;;;;139.55;61.00;;;;;;;-2.81;34.79;99129.56;6103659;29;20044;-67
2023/12/15 08:47:12;;;;;;;112.20;53.83;;;;;;;-2.83;34.79;99126.97;6102793;29;20064;-67
2023/12/15 08:50:16;;;;;;;108.68;51.92;;;;;;;-2.69;34.36;99127.25;6103461;29;20048;-67
2023/12/15 08:53:18;;;;;;;116.53;49.60;;;;;;;-2.85;34.24;99122.59;6102802;29;20265;-67
2023/12/15 08:56:19;;;;;;;109.25;46.72;;;;;;;-3.27;34.78;99113.81;6102832;29;20052;-66
2023/12/15 08:59:21;;;;;;;102.45;44.13;;;;;;;-3.75;35.69;99124.53;6101920;29;20180;-66
2023/12/15 09:02:26;;;;;;;105.20;45.08;;;;;;;-4.28;35.39;99117.00;6103402;29;20085;-66
2023/12/15 09:05:32;;;;;;;93.32;42.33;;;;;;;-4.82;35.58;99114.47;6103028;29;20048;-67
2023/12/15 09:08:37;;;;;;;84.28;37.90;;;;;;;-5.16;36.36;99114.22;6085509;29;20433;-67
2023/12/15 09:11:41;;;;;;;87.13;36.53;;;;;;;-5.31;36.73;99109.44;6102666;29;20044;-67
2023/12/15 09:14:42;;;;;;;79.53;35.97;;;;;;;-5.66;36.80;99111.69;6102761;29;20047;-66
2023/12/15 09:17:45;;;;;;;81.13;34.20;;;;;;;-6.44;37.18;99102.03;6102511;29;20051;-66
2023/12/15 09:20:49;;;;;;;75.47;31.65;;;;;;;-7.14;37.51;99094.13;6102468;29;20063;-67
2023/12/15 09:23:56;;;;;;;72.18;32.38;;;;;;;-7.74;38.40;99094.22;6102628;29;20425;-66
2023/12/15 09:26:57;;;;;;;73.70;33.55;;;;;;;-8.28;39.27;99094.41;6102299;29;20051;-66
2023/12/15 09:30:02;;;;;;;72.90;32.55;;;;;;;-8.81;39.57;99086.06;6102400;29;20152;-66
2023/12/15 09:33:08;;;;;;;75.53;33.55;;;;;;;-9.37;40.07;99074.06;6102090;29;20044;-68
2023/12/15 09:36:09;;;;;;;85.28;33.03;;;;;;;-9.95;40.86;99068.59;6102016;29;20502;-67
2023/12/15 09:39:11;;;;;;;81.80;31.63;;;;;;;-10.35;40.92;99081.00;6084474;29;20549;-66
2023/12/15 09:42:14;;;;;;;70.13;28.85;;;;;;;-10.65;41.81;99083.63;6102174;29;20048;-67
2023/12/15 09:45:19;;;;;;;64.97;28.25;;;;;;;-10.79;41.70;99061.66;6084745;29;20128;-67
2023/12/15 09:48:23;;;;;;;68.68;27.58;;;;;;;-10.40;41.24;99058.69;6101163;29;20070;-67
2023/12/15 09:51:25;;;;;;;58.13;25.60;;;;;;;-9.34;40.21;99060.56;6101683;29;20129;-67
2023/12/15 09:54:31;;;;;;;56.95;24.05;;;;;;;-6.87;37.15;99054.28;6101866;29;20155;-66
2023/12/15 09:57:36;;;;;;;58.47;25.60;;;;;;;-4.38;34.03;99047.31;6101305;29;20060;-67
2023/12/15 10:00:39;;;;;;;55.38;27.63;;;;;;;-2.98;31.62;99054.44;6101660;29;20040;-67
2023/12/15 10:03:43;;;;;;;63.40;27.67;;;;;;;-2.75;31.40;99053.25;6101594;29;20044;-67
2023/12/15 10:06:47;;;;;;;68.88;28.70;;;;;;;-4.27;32.10;99061.34;6101362;29;20058;-68
2023/12/15 10:09:48;;;;;;;65.22;28.55;;;;;;;-6.21;34.29;99053.34;6084052;29;20160;-67
2023/12/15 10:12:50;;;;;;;65.45;28.42;;;;;;;-7.90;36.57;99056.88;6100858;29;20079;-67
2023/12/15 10:15:52;;;;;;;68.80;28.85;;;;;;;-9.11;38.96;99054.03;6101236;29;20183;-67
2023/12/15 10:18:58;;;;;;;63.90;26.10;;;;;;;-9.92;39.78;99052.59;6100804;29;20062;-67
2023/12/15 10:22:02;;;;;;;56.72;25.15;;;;;;;-10.67;40.42;99047.06;6100304;29;20052;-67
2023/12/15 10:25:16;;;;;;;51.75;23.38;;;;;;;-11.14;41.01;99053.00;6100760;29;20051;-67
2023/12/15 10:28:20;;;;;;;52.45;22.08;;;;;;;-11.46;41.71;99054.63;6100654;29;20359;-66
2023/12/15 10:31:27;;;;;;;57.30;21.75;;;;;;;-11.72;42.01;99049.72;6100784;29;20047;-67
2023/12/15 10:34:28;;;;;;;52.97;21.50;;;;;;;-12.01;42.16;99043.88;6101047;29;20089;-67
2023/12/15 10:37:32;;;;;;;;;;;;;;;-12.17;41.60;99043.75;6101303;29;20040;-66
2023/12/15 10:40:39;;;;;;;54.67;20.42;;;;;;;-12.53;42.08;99034.06;6099921;29;20013;-68
2023/12/15 10:43:47;;;;;;;53.75;19.08;;;;;;;-12.67;43.06;99040.84;6100462;29;20048;-67
2023/12/15 10:46:53;;;;;;;51.17;21.52;;;;;;;-13.01;42.93;99016.75;6084204;29;20048;-67
2023/12/15 10:50:01;;;;;;;66.13;26.55;;;;;;;-13.06;43.35;99038.41;6100636;29;20044;-67
2023/12/15 10:53:04;;;;;;;74.28;32.58;;;;;;;-13.34;43.51;99036.69;6100145;29;20082;-66
2023/12/15 10:56:11;;;;;;;114.32;46.70;;;;;;;-13.48;44.23;99043.41;6100588;29;20067;-67
2023/12/15 10:59:13;;;;;;;122.53;48.50;;;;;;;-13.67;44.56;99031.25;6099940;29;20438;-68
2023/12/15 11:02:18;;;;;;;100.50;40.42;;;;;;;-13.88;44.35;99029.88;6100346;29;20043;-67
2023/12/15 11:05:26;;;;;;;94.82;38.97;;;;;;;-14.08;44.67;99026.91;6099841;29;20600;-67
2023/12/15 11:08:30;;;;;;;91.72;35.20;;;;;;;-14.21;44.74;99024.34;6099966;29;20044;-67
2023/12/15 11:11:35;;;;;;;80.57;33.03;;;;;;;-14.44;45.39;99021.94;6100217;29;20523;-67
2023/12/15 11:14:39;;;;;;;93.65;32.35;;;;;;;-14.63;45.49;99022.38;6100081;29;20180;-68
2023/12/15 11:17:53;;;;;;;82.95;31.55;;;;;;;-14.78;45.83;99032.31;6100066;29;20043;-67
2023/12/15 11:20:59;;;;;;;57.20;27.98;;;;;;;-15.14;45.98;99006.31;6100000;29;20048;-67
2023/12/15 11:24:04;;;;;;;59.88;24.48;;;;;;;-15.11;46.32;99041.88;6100032;29;20226;-67
2023/12/15 11:27:07;;;;;;;66.38;23.25;;;;;;;-15.24;46.33;99039.25;6082562;29;20055;-67
2023/12/15 11:30:40;;;;;;;57.47;22.48;;;;;;;-15.42;46.68;99028.75;6083320;29;20072;-68
2023/12/15 11:33:42;;;;;;;50.35;23.05;;;;;;;-15.64;46.54;99026.31;6098905;29;20454;-67
2023/12/15 11:36:51;;;;;;;56.88;23.75;;;;;;;-15.82;46.45;99025.03;6099864;29;20047;-67
2023/12/15 11:39:57;;;;;;;68.18;27.35;;;;;;;-16.05;46.92;99024.22;6099455;29;20040;-67
2023/12/15 11:42:59;;;;;;;66.85;25.88;;;;;;;-16.09;46.95;99044.97;6098810;29;20053;-67
2023/12/15 11:46:03;;;;;;;68.20;27.23;;;;;;;-16.25;47.05;99037.91;6099858;29;20137;-67
2023/12/15 11:49:21;;;;;;;69.03;24.73;;;;;;;-16.39;47.56;99029.31;6099995;29;20047;-66
2023/12/15 11:52:26;;;;;;;63.10;22.98;;;;;;;-16.44;47.37;99034.78;6098086;29;20040;-67
2023/12/15 11:55:30;;;;;;;56.20;23.38;;;;;;;-16.58;47.27;99042.19;6099348;29;20127;-67
2023/12/15 11:58:31;;;;;;;62.70;22.17;;;;;;;-16.67;47.28;99031.44;6099075;29;20056;-67
2023/12/15 12:01:38;;;;;;;70.90;23.77;;;;;;;-16.83;47.64;99034.44;6099636;29;20044;-66
2023/12/15 12:04:47;;;;;;;65.63;23.38;;;;;;;-16.90;47.97;99037.25;6082270;29;20064;-67
2023/12/15 12:07:53;;;;;;;58.35;21.80;;;;;;;-16.98;47.69;99039.19;6099303;29;20063;-67
2023/12/15 12:10:58;;;;;;;67.57;22.77;;;;;;;-17.12;47.92;99033.84;6098902;29;20052;-67
2023/12/15 12:14:03;;;;;;;61.00;22.67;;;;;;;-17.14;47.80;99045.47;6099475;29;20044;-67
2023/12/15 12:17:10;;;;;;;58.58;22.55;;;;;;;-17.23;47.89;99041.47;6099542;29;20048;-68
2023/12/15 12:20:15;;;;;;;66.90;23.55;;;;;;;-17.33;48.11;99028.03;6098907;29;20056;-66
2023/12/15 12:23:16;;;;;;;67.60;22.95;;;;;;;-17.41;48.13;99027.44;6098824;29;20067;-66
2023/12/15 12:26:18;;;;;;;58.47;22.65;;;;;;;-17.49;48.35;99011.75;6082090;29;20478;-67
2023/12/15 12:29:19;;;;;;;56.65;21.80;;;;;;;-17.48;48.10;99017.66;6098122;29;20052;-68
2023/12/15 12:32:21;;;;;;;61.95;21.08;;;;;;;-17.54;48.42;99017.19;6098463;29;20458;-66
2023/12/15 12:35:27;;;;;;;68.82;24.65;;;;;;;-17.63;48.70;99012.31;6098947;29;20524;-66
2023/12/15 12:38:31;;;;;;;71.53;26.00;;;;;;;-17.69;48.35;98992.59;6099390;29;20048;-67
2023/12/15 12:41:34;;;;;;;75.63;27.75;;;;;;;-17.73;48.47;99003.16;6099041;29;20044;-66
2023/12/15 12:44:41;;;;;;;93.72;33.72;;;;;;;-17.81;48.85;99005.84;6101470;29;20040;-68
2023/12/15 12:47:44;;;;;;;93.25;36.45;;;;;;;-17.91;49.46;99000.09;6103139;29;20095;-66
2023/12/15 12:50:48;;;;;;;115.45;37.40;;;;;;;-18.01;48.98;98992.56;6086711;29;20048;-67
2023/12/15 12:53:51;;;;;;;;;;;;;;;-18.03;49.60;98988.19;6103676;29;20048;-69
2023/12/15 12:56:53;;;;;;;156.27;62.08;;;;;;;-18.16;49.00;98982.19;6103200;29;19923;-66
2023/12/15 12:59:57;;;;;;;153.27;60.97;;;;;;;-18.25;49.39;98981.47;6085170;29;20055;-66
2023/12/15 13:03:01;;;;;;;164.18;57.13;;;;;;;-18.31;49.76;98986.00;6102466;29;20048;-67
2023/12/15 13:06:03;;;;;;;176.38;65.82;;;;;;;-18.34;49.53;98975.66;6101517;29;20067;-66
2023/12/15 13:09:05;;;;;;;208.20;71.75;;;;;;;-18.33;50.08;98976.56;6102552;29;20052;-66
2023/12/15 13:12:13;;;;;;;194.50;74.90;;;;;;;-18.36;49.83;98987.25;6085307;29;20140;-66
2023/12/15 13:15:16;;;;;;;187.23;66.90;;;;;;;-18.41;49.97;98973.44;6103028;29;20040;-67
2023/12/15 13:18:17;;;;;;;165.27;61.70;;;;;;;-18.47;50.03;98972.94;6102566;29;20044;-67
2023/12/15 13:21:22;;;;;;;163.43;62.80;;;;;;;-18.50;49.89;98972.69;6102361;29;20040;-67
2023/12/15 13:24:25;;;;;;;143.68;53.17;;;;;;;-18.57;50.15;98972.19;6084758;29;20056;-67
2023/12/15 13:27:28;;;;;;;127.28;50.65;;;;;;;-18.60;50.44;98976.06;6101969;29;20048;-66
2023/12/15 13:30:31;;;;;;;144.45;53.20;;;;;;;-18.59;50.52;98968.69;6069967;29;20434;-67
2023/12/15 13:33:33;;;;;;;131.50;48.53;;;;;;;-18.57;50.67;98966.28;6101746;29;20059;-68
2023/12/15 13:36:35;;;;;;;134.07;44.60;;;;;;;-18.52;50.67;98979.22;6101867;29;20144;-67
2023/12/15 13:39:36;;;;;;;115.55;43.08;;;;;;;-18.62;50.42;98972.56;6102148;29;20100;-67
2023/12/15 13:42:38;;;;;;;134.73;46.55;;;;;;;-18.66;50.53;98961.38;6101687;29;20072;-67
2023/12/15 13:45:40;;;;;;;125.05;43.90;;;;;;;-18.68;50.92;98962.91;6101103;29;20055;-67
2023/12/15 13:48:46;;;;;;;127.68;40.05;;;;;;;-18.69;51.12;98957.75;6102134;29;20132;-67
2023/12/15 13:51:51;;;;;;;114.15;39.33;;;;;;;-18.68;51.06;98962.00;6101498;29;20409;-66